createdAt,value
2019-05-12T00:01:14.174Z,4.62
2019-05-12T00:06:17.671Z,3.67
2019-05-12T00:11:21.113Z,3.92
2019-05-12T00:16:22.499Z,4.10
2019-05-12T00:21:23.805Z,4.42
2019-05-12T00:26:28.348Z,3.90
2019-05-12T00:31:30.658Z,3.98
2019-05-12T00:36:32.268Z,3.95
2019-05-12T00:41:33.828Z,3.98
2019-05-12T00:46:39.165Z,4.05
2019-05-12T00:51:40.895Z,4.20
2019-05-12T00:56:42.234Z,4.30
2019-05-12T01:01:43.554Z,4.50
2019-05-12T01:06:44.816Z,5.67
2019-05-12T01:11:48.392Z,4.37
2019-05-12T01:16:51.590Z,3.98
2019-05-12T01:21:52.936Z,4.72
2019-05-12T01:26:54.264Z,4.97
2019-05-12T01:32:00.852Z,5.12
2019-05-12T01:37:20.879Z,5.22
2019-05-12T01:42:23.886Z,5.20
2019-05-12T01:47:29.075Z,5.15
2019-05-12T01:52:30.592Z,5.53
2019-05-12T01:57:33.215Z,5.00
2019-05-12T02:02:34.526Z,5.72
2019-05-12T02:07:41.195Z,5.65
2019-05-12T02:12:42.514Z,5.37
2019-05-12T02:17:44.300Z,5.53
2019-05-12T02:22:47.778Z,5.50
2019-05-12T02:27:49.338Z,5.75
2019-05-12T02:32:57.427Z,5.53
2019-05-12T02:37:57.327Z,6.25
2019-05-12T02:42:59.719Z,5.42
2019-05-12T02:48:00.991Z,5.50
2019-05-12T02:53:05.376Z,6.03
2019-05-12T02:58:15.256Z,5.22
2019-05-12T03:03:25.075Z,7.05
2019-05-12T03:08:47.596Z,5.70
2019-05-12T03:13:49.435Z,6.20
2019-05-12T03:18:50.768Z,6.35
2019-05-12T03:23:54.877Z,6.67
2019-05-12T03:28:55.747Z,5.70
2019-05-12T03:34:00.108Z,5.47
2019-05-12T03:39:04.207Z,6.08
2019-05-12T03:44:06.343Z,5.70
2019-05-12T03:49:07.948Z,5.85
2019-05-12T03:54:09.638Z,6.22
2019-05-12T03:59:11.026Z,6.10
2019-05-12T04:04:16.167Z,6.92
2019-05-12T04:09:17.521Z,6.22
2019-05-12T04:14:18.789Z,6.40
2019-05-12T04:19:20.129Z,6.78
2019-05-12T04:24:25.234Z,6.22
2019-05-12T04:29:27.191Z,7.10
2019-05-12T04:34:30.682Z,7.40
2019-05-12T04:39:34.107Z,7.15
2019-05-12T04:44:36.678Z,6.33
2019-05-12T04:49:37.931Z,6.17
2019-05-12T04:54:39.266Z,7.17
2019-05-12T04:59:40.746Z,6.40
2019-05-12T05:04:44.073Z,5.97
2019-05-12T05:09:45.574Z,6.17
2019-05-12T05:14:47.155Z,6.22
2019-05-12T05:19:48.441Z,6.28
2019-05-12T05:24:49.831Z,5.70
2019-05-12T05:29:54.484Z,5.30
2019-05-12T05:34:57.794Z,4.75
2019-05-12T05:39:59.286Z,4.97
2019-05-12T05:45:09.940Z,4.40
2019-05-12T05:50:13.557Z,4.05
2019-05-12T05:55:19.886Z,3.20
2019-05-12T06:00:23.211Z,3.20
2019-05-12T06:05:28.709Z,2.80
2019-05-12T06:10:34.898Z,3.12
2019-05-12T06:15:35.907Z,2.62
2019-05-12T06:20:37.645Z,2.42
2019-05-12T06:25:46.037Z,2.37
2019-05-12T06:30:44.103Z,2.75
2019-05-12T06:35:45.373Z,2.00
2019-05-12T06:40:47.560Z,2.20
2019-05-12T06:45:50.783Z,2.40
2019-05-12T06:50:53.612Z,3.22
2019-05-12T06:55:58.211Z,1.92
2019-05-12T07:01:04.420Z,2.40
2019-05-12T07:06:09.278Z,2.30
2019-05-12T07:11:08.015Z,2.47
2019-05-12T07:16:22.016Z,2.75
2019-05-12T07:21:21.082Z,2.08
2019-05-12T07:26:23.463Z,3.02
2019-05-12T07:31:25.039Z,2.35
2019-05-12T07:36:29.009Z,1.98
2019-05-12T07:41:34.254Z,1.98
2019-05-12T07:46:39.759Z,1.90
2019-05-12T07:51:40.755Z,2.30
2019-05-12T07:56:44.223Z,1.70
2019-05-12T08:01:51.873Z,1.95
2019-05-12T08:06:53.680Z,2.95
2019-05-12T08:11:54.238Z,1.20
2019-05-12T08:17:01.978Z,1.00
2019-05-12T08:22:01.180Z,0.80
2019-05-12T08:27:07.363Z,1.30
2019-05-12T08:32:14.849Z,1.30
2019-05-12T08:37:13.913Z,0.60
2019-05-12T08:42:15.462Z,1.20
2019-05-12T08:47:16.751Z,0.70
2019-05-12T08:52:19.357Z,0.90
2019-05-12T08:57:24.163Z,1.20
2019-05-12T09:02:27.056Z,1.02
2019-05-12T09:07:30.367Z,1.65
2019-05-12T09:12:33.771Z,1.30
2019-05-12T09:17:37.463Z,1.20
2019-05-12T09:22:39.357Z,1.02
2019-05-12T09:27:45.639Z,1.10
2019-05-12T09:32:49.661Z,1.32
2019-05-12T09:37:47.941Z,1.10
2019-05-12T09:42:49.378Z,1.95
2019-05-12T09:47:58.963Z,1.42
2019-05-12T09:53:00.716Z,1.57
2019-05-12T09:58:06.306Z,1.57
2019-05-12T10:03:08.672Z,1.92
2019-05-12T10:08:10.278Z,1.65
2019-05-12T10:13:13.683Z,2.10
2019-05-12T10:18:15.216Z,1.87
2019-05-12T10:23:20.612Z,1.52
2019-05-12T10:28:23.656Z,1.87
2019-05-12T10:33:24.913Z,1.70
2019-05-12T10:38:26.198Z,1.60
2019-05-12T10:43:28.632Z,1.77
2019-05-12T10:48:34.328Z,1.87
2019-05-12T10:53:35.614Z,1.77
2019-05-12T10:58:37.493Z,1.92
2019-05-12T11:03:43.042Z,1.10
2019-05-12T11:08:47.323Z,1.60
2019-05-12T11:13:49.993Z,1.82
2019-05-12T11:18:49.157Z,1.45
2019-05-12T11:23:50.433Z,1.52
2019-05-12T11:28:53.258Z,1.82
2019-05-12T11:33:55.086Z,1.85
2019-05-12T11:38:56.481Z,2.15
2019-05-12T11:43:57.824Z,1.95
2019-05-12T11:48:59.300Z,1.50
2019-05-12T11:54:03.466Z,2.15
2019-05-12T11:59:04.015Z,1.67
2019-05-12T12:04:06.569Z,1.70
2019-05-12T12:09:09.115Z,1.30
2019-05-12T12:14:11.094Z,1.87
2019-05-12T12:19:12.509Z,1.70
2019-05-12T12:24:13.853Z,1.75
2019-05-12T12:29:15.256Z,1.70
2019-05-12T12:34:23.558Z,4.17
2019-05-12T12:39:20.604Z,1.47
2019-05-12T12:44:24.130Z,1.50
2019-05-12T12:49:28.721Z,1.37
2019-05-12T12:54:28.811Z,1.40
2019-05-12T12:59:33.409Z,1.15
2019-05-12T13:04:34.076Z,1.95
2019-05-12T13:09:35.536Z,1.37
2019-05-12T13:14:38.457Z,1.30
2019-05-12T13:19:40.142Z,1.40
2019-05-12T13:24:41.411Z,1.60
2019-05-12T13:29:42.650Z,1.92
2019-05-12T13:34:44.206Z,2.02
2019-05-12T13:39:55.457Z,1.92
2019-05-12T13:44:49.245Z,5.17
2019-05-12T13:49:50.676Z,2.20
2019-05-12T13:54:51.954Z,2.10
2019-05-12T14:00:04.180Z,1.98
2019-05-12T14:05:00.526Z,1.80
2019-05-12T14:09:59.682Z,2.08
2019-05-12T14:15:06.136Z,1.80
2019-05-12T14:20:09.147Z,2.12
2019-05-12T14:25:14.863Z,1.90
2019-05-12T14:30:15.945Z,1.30
2019-05-12T14:35:17.190Z,2.10
2019-05-12T14:40:21.255Z,1.35
2019-05-12T14:45:25.628Z,1.20
2019-05-12T14:50:27.323Z,1.65
2019-05-12T14:55:28.602Z,1.20
2019-05-12T15:00:30.681Z,1.20
2019-05-12T15:05:32.061Z,1.25
2019-05-12T15:10:33.833Z,1.60
2019-05-12T15:15:36.958Z,1.30
2019-05-12T15:20:41.476Z,1.80
2019-05-12T15:25:43.301Z,2.17
2019-05-12T15:30:44.672Z,1.98
2019-05-12T15:35:45.948Z,2.05
2019-05-12T15:40:47.757Z,1.95
2019-05-12T15:45:54.502Z,1.50
2019-05-12T15:50:54.026Z,1.82
2019-05-12T15:55:55.435Z,1.87
2019-05-12T16:00:58.094Z,2.45
2019-05-12T16:06:01.357Z,1.60
2019-05-12T16:11:05.108Z,1.70
2019-05-12T16:16:08.045Z,1.70
2019-05-12T16:21:09.646Z,1.52
2019-05-12T16:26:13.066Z,2.00
2019-05-12T16:31:16.673Z,1.95
2019-05-12T16:36:17.997Z,1.57
2019-05-12T16:41:19.812Z,1.50
2019-05-12T16:46:23.384Z,1.50
2019-05-12T16:51:24.552Z,1.92
2019-05-12T16:56:29.534Z,1.70
2019-05-12T17:01:29.573Z,2.00
2019-05-12T17:06:35.139Z,1.32
2019-05-12T17:11:37.305Z,1.40
2019-05-12T17:16:42.059Z,1.35
2019-05-12T17:21:41.446Z,1.25
2019-05-12T17:26:44.010Z,1.22
2019-05-12T17:31:45.466Z,1.17
2019-05-12T17:36:50.094Z,1.20
2019-05-12T17:41:49.909Z,1.10
2019-05-12T17:46:51.285Z,1.27
2019-05-12T17:51:53.445Z,0.90
2019-05-12T17:56:57.222Z,1.42
2019-05-12T18:01:58.493Z,1.07
2019-05-12T18:07:06.065Z,1.40
2019-05-12T18:12:04.272Z,1.75
2019-05-12T18:17:08.773Z,1.10
2019-05-12T18:22:09.573Z,1.30
2019-05-12T18:27:13.444Z,1.20
2019-05-12T18:32:14.497Z,1.05
2019-05-12T18:37:15.761Z,0.98
2019-05-12T18:42:17.292Z,1.10
2019-05-12T18:47:23.290Z,1.40
2019-05-12T18:52:23.595Z,1.32
2019-05-12T18:57:25.022Z,1.65
2019-05-12T19:02:28.455Z,1.12
2019-05-12T19:07:39.244Z,1.60
2019-05-12T19:12:35.476Z,1.22
2019-05-12T19:17:35.877Z,1.07
2019-05-12T19:22:39.406Z,1.10
2019-05-12T19:27:45.648Z,1.22
2019-05-12T19:32:44.951Z,1.20
2019-05-12T19:37:46.838Z,1.20
2019-05-12T19:42:53.835Z,0.98
2019-05-12T19:47:53.416Z,1.00
2019-05-12T19:52:54.532Z,1.15
2019-05-12T19:57:56.190Z,1.00
2019-05-12T20:02:57.469Z,1.27
2019-05-12T20:08:00.169Z,0.90
2019-05-12T20:13:20.055Z,1.20
2019-05-12T20:18:24.075Z,0.98
2019-05-12T20:23:27.509Z,0.88
2019-05-12T20:28:30.098Z,1.17
2019-05-12T20:33:34.337Z,1.00
2019-05-12T20:38:36.956Z,1.37
2019-05-12T20:43:43.584Z,1.20
2019-05-12T20:54:05.638Z,1.30
2019-05-12T20:59:22.031Z,2.33
2019-05-12T21:04:31.039Z,1.62
2019-05-12T21:09:28.641Z,1.40
2019-05-12T21:14:30.280Z,1.50
2019-05-12T21:19:37.964Z,1.62
2019-05-12T21:24:39.270Z,1.67
2019-05-12T21:29:39.225Z,1.60
2019-05-12T21:34:40.557Z,1.57
2019-05-12T21:39:46.786Z,1.72
2019-05-12T21:44:49.014Z,1.70
2019-05-12T21:49:55.137Z,1.57
2019-05-12T21:54:55.488Z,1.75
2019-05-12T21:59:56.832Z,1.98
2019-05-12T22:04:58.308Z,2.20
2019-05-12T22:09:59.693Z,2.17
2019-05-12T22:15:03.563Z,2.10
2019-05-12T22:20:14.772Z,2.30
2019-05-12T22:25:09.594Z,2.05
2019-05-12T22:30:13.503Z,2.22
2019-05-12T22:35:22.154Z,2.37
2019-05-12T22:40:20.054Z,2.35
2019-05-12T22:45:25.617Z,2.67
2019-05-12T22:50:32.282Z,2.90
2019-05-12T22:55:32.497Z,2.70
2019-05-12T23:00:34.549Z,2.83
2019-05-12T23:05:35.777Z,2.95
2019-05-12T23:10:41.492Z,3.22
2019-05-12T23:15:47.477Z,3.60
2019-05-12T23:20:44.911Z,3.50
2019-05-12T23:25:51.964Z,4.60
2019-05-12T23:30:50.189Z,3.33
2019-05-12T23:35:53.564Z,3.95
2019-05-12T23:40:54.823Z,3.75
2019-05-12T23:51:17.374Z,3.30
2019-05-12T23:56:18.642Z,4.35
